Manigotagan, Canada
Current Conditions -  °F | °C
As of 4:00 PM on Tuesday 25 Nov 2014 (Local Time) from CYWG Reporting Station
Light Snow Light Snow  
Wind Chill: -8°   Ceiling: 3800
Heat Index:   Visibility: 3mi
Dew Point:   Wind: 15mph
Humidity: 79%   Direction: 30°NNE
Pressure: 30.06"   Gusts: NA
Location:  51.1°N, 96.3°W
Report Text: CYWG 252200Z 03013KT 3SM -SN BKN038 OVC085 M13/M16 A3006 RMK SC6AC2 SLP201
Loading
Personal Weather Stations






























Interactive Weather Map New forecast layout! Learn more

10-Day Weather Forecast

Advertisements
Track Severe Weather on mobile